JST797 YBSU-YMML
Flight info
| Callsign | JST797 |
|---|---|
| Flight time | N/A |
| Altitude | 36000 |
| Route | SU Q35 DORSU H119 ML |
| Aircraft | A320/M-SDE3FGHIRWY/LB1 |
Departure
| Time | 2026-05-05 10:18 |
|---|---|
| Airport | Sunshine Coast Airport (YBSU) |
Arrival
| Time | N/A |
|---|---|
| Airport | Melbourne Airport (YMML) |
| Time | Latitude | Longitude | Altitude | Speed | Heading |
|---|---|---|---|---|---|
| 2026-05-05 09:41 | -26.60478 | 153.08916 | 26 ft | 0 kts | 233° |
| 2026-05-05 10:09 | -26.60465 | 153.08936 | 24 ft | 4 kts | 236° |
| 2026-05-05 10:09 | -26.60450 | 153.08956 | 21 ft | 4 kts | 189° |
| 2026-05-05 10:09 | -26.60432 | 153.08951 | 24 ft | 4 kts | 146° |
| 2026-05-05 10:09 | -26.60419 | 153.08940 | 24 ft | 0 kts | 143° |
| 2026-05-05 10:12 | -26.60432 | 153.08951 | 24 ft | 6 kts | 142° |
| 2026-05-05 10:12 | -26.60479 | 153.08993 | 38 ft | 11 kts | 142° |
| 2026-05-05 10:13 | -26.60521 | 153.09063 | 21 ft | 12 kts | 82° |
| 2026-05-05 10:13 | -26.60458 | 153.09054 | 21 ft | 11 kts | 322° |
| 2026-05-05 10:13 | -26.60367 | 153.08975 | 23 ft | 23 kts | 322° |
| 2026-05-05 10:13 | -26.60228 | 153.08856 | 21 ft | 26 kts | 322° |
| 2026-05-05 10:14 | -26.60081 | 153.08728 | 21 ft | 27 kts | 323° |
| 2026-05-05 10:14 | -26.59925 | 153.08597 | 22 ft | 29 kts | 323° |
| 2026-05-05 10:14 | -26.59763 | 153.08458 | 21 ft | 30 kts | 322° |
| 2026-05-05 10:14 | -26.59600 | 153.08320 | 22 ft | 30 kts | 324° |
| 2026-05-05 10:15 | -26.59442 | 153.08196 | 21 ft | 21 kts | 338° |
| 2026-05-05 10:15 | -26.59382 | 153.08232 | 21 ft | 11 kts | 53° |
| 2026-05-05 10:15 | -26.59320 | 153.08291 | 21 ft | 15 kts | 10° |
| 2026-05-05 10:15 | -26.59211 | 153.08222 | 21 ft | 23 kts | 322° |
| 2026-05-05 10:16 | -26.59047 | 153.08081 | 22 ft | 35 kts | 323° |
| 2026-05-05 10:16 | -26.58836 | 153.07901 | 23 ft | 41 kts | 323° |
| 2026-05-05 10:16 | -26.58605 | 153.07705 | 22 ft | 42 kts | 322° |
| 2026-05-05 10:16 | -26.58442 | 153.07511 | 21 ft | 29 kts | 285° |
| 2026-05-05 10:17 | -26.58344 | 153.07457 | 21 ft | 13 kts | 55° |
| 2026-05-05 10:17 | -26.58368 | 153.07511 | 22 ft | 10 kts | 151° |
| 2026-05-05 10:17 | -26.58428 | 153.07562 | 22 ft | 12 kts | 142° |
| 2026-05-05 10:17 | -26.58642 | 153.07742 | 22 ft | 73 kts | 143° |
| 2026-05-05 10:18 | -26.59208 | 153.08221 | 21 ft | 129 kts | 143° |
| 2026-05-05 10:18 | -26.60041 | 153.08927 | 109 ft | 163 kts | 142° |
| 2026-05-05 10:18 | -26.60938 | 153.09695 | 672 ft | 164 kts | 143° |
| 2026-05-05 10:18 | -26.61845 | 153.10472 | 1218 ft | 169 kts | 143° |
| 2026-05-05 10:19 | -26.62781 | 153.11277 | 1787 ft | 171 kts | 142° |
| 2026-05-05 10:19 | -26.63766 | 153.12125 | 2106 ft | 188 kts | 143° |
| 2026-05-05 10:19 | -26.64777 | 153.13155 | 2425 ft | 206 kts | 133° |
| 2026-05-05 10:19 | -26.65763 | 153.14452 | 2654 ft | 233 kts | 132° |
| 2026-05-05 10:20 | -26.66854 | 153.15904 | 3081 ft | 255 kts | 131° |
| 2026-05-05 10:20 | -26.68008 | 153.17449 | 3847 ft | 259 kts | 132° |
| 2026-05-05 10:20 | -26.69183 | 153.18973 | 4809 ft | 258 kts | 133° |
| 2026-05-05 10:20 | -26.70376 | 153.20493 | 5646 ft | 262 kts | 132° |
| 2026-05-05 10:21 | -26.71572 | 153.22042 | 6494 ft | 264 kts | 131° |
| 2026-05-05 10:21 | -26.72774 | 153.23619 | 7230 ft | 269 kts | 131° |
| 2026-05-05 10:21 | -26.74008 | 153.25219 | 7967 ft | 273 kts | 132° |
| 2026-05-05 10:21 | -26.75280 | 153.26818 | 8716 ft | 278 kts | 132° |
| 2026-05-05 10:22 | -26.76571 | 153.28455 | 9418 ft | 283 kts | 131° |
| 2026-05-05 10:22 | -26.77868 | 153.30135 | 10142 ft | 287 kts | 131° |
| 2026-05-05 10:22 | -26.79202 | 153.31865 | 10543 ft | 303 kts | 131° |
| 2026-05-05 10:22 | -26.80730 | 153.33609 | 10700 ft | 325 kts | 141° |
| 2026-05-05 10:23 | -26.82692 | 153.35012 | 10923 ft | 343 kts | 155° |
| 2026-05-05 10:23 | -26.84981 | 153.35870 | 11351 ft | 351 kts | 169° |
| 2026-05-05 10:23 | -26.87430 | 153.36104 | 11886 ft | 356 kts | 183° |
| 2026-05-05 10:23 | -26.89885 | 153.36026 | 12465 ft | 360 kts | 184° |
| 2026-05-05 10:24 | -26.92409 | 153.35950 | 13005 ft | 366 kts | 184° |
| 2026-05-05 10:24 | -26.94977 | 153.35874 | 13525 ft | 372 kts | 184° |
| 2026-05-05 10:24 | -26.97583 | 153.35797 | 14019 ft | 378 kts | 185° |
| 2026-05-05 10:24 | -27.00227 | 153.35722 | 14501 ft | 382 kts | 185° |
| 2026-05-05 10:25 | -27.02897 | 153.35647 | 15010 ft | 385 kts | 185° |
| 2026-05-05 10:25 | -27.05590 | 153.35569 | 15518 ft | 389 kts | 186° |
| 2026-05-05 10:25 | -27.08307 | 153.35489 | 16032 ft | 392 kts | 186° |
| 2026-05-05 10:25 | -27.11043 | 153.35408 | 16549 ft | 395 kts | 186° |
| 2026-05-05 10:26 | -27.13809 | 153.35328 | 17071 ft | 399 kts | 186° |
| 2026-05-05 10:26 | -27.16597 | 153.35246 | 17531 ft | 404 kts | 186° |
| 2026-05-05 10:26 | -27.19420 | 153.35164 | 18032 ft | 408 kts | 186° |
| 2026-05-05 10:26 | -27.22274 | 153.35081 | 18523 ft | 412 kts | 187° |
| 2026-05-05 10:27 | -27.25149 | 153.34996 | 19003 ft | 414 kts | 187° |
| 2026-05-05 10:27 | -27.28040 | 153.34909 | 19526 ft | 416 kts | 187° |
| 2026-05-05 10:27 | -27.30936 | 153.34819 | 20075 ft | 417 kts | 187° |
| 2026-05-05 10:27 | -27.33804 | 153.34707 | 20599 ft | 417 kts | 191° |
| 2026-05-05 10:28 | -27.36668 | 153.34158 | 21139 ft | 410 kts | 202° |
| 2026-05-05 10:28 | -27.39287 | 153.33085 | 21659 ft | 403 kts | 212° |
| 2026-05-05 10:28 | -27.41712 | 153.31552 | 22181 ft | 399 kts | 218° |
| 2026-05-05 10:28 | -27.44095 | 153.29929 | 22687 ft | 401 kts | 218° |
| 2026-05-05 10:29 | -27.46489 | 153.28306 | 23196 ft | 402 kts | 218° |
| 2026-05-05 10:29 | -27.48893 | 153.26681 | 23693 ft | 403 kts | 218° |
| 2026-05-05 10:29 | -27.51304 | 153.25053 | 24082 ft | 405 kts | 218° |
| 2026-05-05 10:29 | -27.53733 | 153.23412 | 24435 ft | 408 kts | 218° |
| 2026-05-05 10:30 | -27.56173 | 153.21764 | 24775 ft | 411 kts | 219° |
| 2026-05-05 10:30 | -27.58637 | 153.20098 | 25120 ft | 414 kts | 219° |
| 2026-05-05 10:30 | -27.61111 | 153.18422 | 25451 ft | 417 kts | 219° |
| 2026-05-05 10:30 | -27.63601 | 153.16731 | 25798 ft | 419 kts | 219° |
| 2026-05-05 10:31 | -27.66106 | 153.15031 | 26155 ft | 421 kts | 220° |
| 2026-05-05 10:31 | -27.68624 | 153.13325 | 26484 ft | 424 kts | 220° |
| 2026-05-05 10:31 | -27.71159 | 153.11609 | 26821 ft | 426 kts | 220° |
| 2026-05-05 10:31 | -27.73706 | 153.09883 | 27143 ft | 428 kts | 220° |
| 2026-05-05 10:32 | -27.76269 | 153.08142 | 27461 ft | 431 kts | 221° |
| 2026-05-05 10:32 | -27.78842 | 153.06391 | 27780 ft | 433 kts | 221° |
| 2026-05-05 10:32 | -27.81432 | 153.04630 | 28092 ft | 435 kts | 221° |
| 2026-05-05 10:32 | -27.83991 | 153.02793 | 28417 ft | 435 kts | 224° |
| 2026-05-05 10:33 | -27.86450 | 153.00891 | 28723 ft | 435 kts | 225° |
| 2026-05-05 10:33 | -27.88916 | 152.98893 | 29031 ft | 436 kts | 226° |
| 2026-05-05 10:33 | -27.91369 | 152.96866 | 29370 ft | 437 kts | 227° |
| 2026-05-05 10:33 | -27.93822 | 152.94839 | 29819 ft | 437 kts | 227° |
| 2026-05-05 10:34 | -27.96280 | 152.92828 | 30263 ft | 436 kts | 227° |
| 2026-05-05 10:34 | -27.98751 | 152.90828 | 30614 ft | 437 kts | 227° |
| 2026-05-05 10:34 | -28.01232 | 152.88837 | 30943 ft | 437 kts | 226° |
| 2026-05-05 10:34 | -28.03714 | 152.86854 | 31263 ft | 438 kts | 226° |
| 2026-05-05 10:35 | -28.06207 | 152.84864 | 31586 ft | 439 kts | 226° |
| 2026-05-05 10:35 | -28.08702 | 152.82871 | 31932 ft | 439 kts | 226° |
| 2026-05-05 10:35 | -28.11194 | 152.80877 | 32307 ft | 439 kts | 227° |
| 2026-05-05 10:35 | -28.13695 | 152.78876 | 32597 ft | 441 kts | 227° |
| 2026-05-05 10:36 | -28.16202 | 152.76864 | 32895 ft | 442 kts | 227° |
| 2026-05-05 10:36 | -28.18706 | 152.74850 | 33202 ft | 443 kts | 227° |
| 2026-05-05 10:36 | -28.21220 | 152.72826 | 33514 ft | 444 kts | 228° |
| 2026-05-05 10:36 | -28.23740 | 152.70796 | 33800 ft | 445 kts | 228° |
| 2026-05-05 10:37 | -28.26263 | 152.68761 | 34100 ft | 445 kts | 228° |
| 2026-05-05 10:37 | -28.28788 | 152.66722 | 34400 ft | 445 kts | 228° |
| 2026-05-05 10:37 | -28.31311 | 152.64687 | 34730 ft | 444 kts | 228° |
| 2026-05-05 10:37 | -28.33825 | 152.62667 | 35135 ft | 441 kts | 228° |
| 2026-05-05 10:38 | -28.36320 | 152.60666 | 35525 ft | 437 kts | 229° |
| 2026-05-05 10:38 | -28.38793 | 152.58676 | 35870 ft | 434 kts | 229° |
| 2026-05-05 10:38 | -28.41242 | 152.56696 | 36098 ft | 433 kts | 229° |